D. Sourdeau de Beauregard

D. Sourdeau de Beauregard

Statistiques 2022

  • Nb de partants : 117
  • Nb de victoires : 18
  • Nb de places : 44
  • Écart gagnant : 7
  • Réussite à la gagne : 15%
  • Réussite à la place : 38%
Musique : Ah 7h 9s 11p 2h 0s 2h 1h Ah 6h As Ah 6h 2h 3h Disth 2h 5h
ChevalDernière courseCoursesVictoiresR. à la gagnePlacésR. à la place
Palmaria 13/08/22 0 0 - 0 -
I Can Path 08/08/22 6 1 17% 4 67%
Mondeville 07/08/22 7 2 29% 3 43%
Tiahuanaku 06/08/22 0 0 - 0 -
Moi Presidente 04/08/22 8 2 25% 3 38%
Guns'nroses 28/07/22 7 1 14% 3 43%
Trinite 24/07/22 1 0 - 1 100%
Kelklas 21/07/22 7 2 29% 3 43%
L'Au Dela 14/07/22 2 0 - 0 -
Hit The Road Jack 14/07/22 1 0 - 0 -
Tempolka 14/07/22 1 0 - 0 -
Mademoiselle Coko 06/07/22 9 0 - 5 56%
Ikebana Aulmes 06/07/22 4 1 25% 2 50%
Redneck 28/06/22 9 1 11% 3 33%
Sinian Enki 28/06/22 3 0 - 1 33%
Jalna de Grissay 26/06/22 0 0 - 0 -
Hahnville (Aq) 22/06/22 8 1 13% 4 50%
Mister Banjo 19/06/22 0 0 - 0 -
Helicine 17/06/22 5 0 - 1 20%
Joe l'Audace 12/06/22 1 0 - 1 100%
Hacienda 11/06/22 14 4 29% 9 64%
Le Huron 11/06/22 12 3 25% 8 67%
Masked Matuta 07/06/22 5 1 20% 2 40%
Haute Idee 04/06/22 14 4 29% 9 64%
Masked Dream 04/06/22 8 0 - 2 25%
Parenthese d'Ange 28/05/22 13 1 8% 5 38%
Calayan 22/05/22 11 3 27% 5 45%
Idee Neuve 21/05/22 5 1 20% 4 80%
Ila Del Sol 18/05/22 2 0 - 0 -
Isaline de Chandou 16/05/22 4 1 25% 2 50%
Blade 14/05/22 3 0 - 1 33%
Itours Brun 05/05/22 9 2 22% 7 78%
Mandurose 26/04/22 6 2 33% 6 100%
Petellat du Rheu 24/04/22 25 4 16% 10 40%
Saraswati 24/04/22 0 0 - 0 -
Royalor 23/04/22 0 0 - 0 -
Killer Queen 21/04/22 2 0 - 0 -
Hosaville 19/04/22 14 1 7% 5 36%
Jade Land 09/04/22 0 0 - 0 -
Illowa 03/04/22 1 0 - 0 -
Broceliand 28/03/22 0 0 - 0 -
Jenetho 28/03/22 0 0 - 0 -
Bathyscaphe 20/03/22 6 2 33% 2 33%
Horresco Referens 18/03/22 7 1 14% 4 57%
Independencia 08/03/22 4 1 25% 1 25%
Hadaline 13/01/22 14 1 7% 4 29%
El Atillo 19/12/21 14 3 21% 7 50%
Palace d'Ange 11/12/21 2 0 - 0 -
Henvol de Chaba 28/11/21 9 2 22% 5 56%
Hic Salta 28/11/21 0 0 - 0 -